createdAt,value
2022-09-25T00:01:11.085Z,100.00
2022-09-25T00:03:40.073Z,100.00
2022-09-25T00:06:10.380Z,100.00
2022-09-25T00:08:38.317Z,100.00
2022-09-25T00:11:15.167Z,100.00
2022-09-25T00:13:44.376Z,100.00
2022-09-25T00:16:14.228Z,100.00
2022-09-25T00:19:01.001Z,100.00
2022-09-25T00:21:31.278Z,100.00
2022-09-25T00:24:03.506Z,100.00
2022-09-25T00:26:33.654Z,100.00
2022-09-25T00:29:01.614Z,100.00
2022-09-25T00:31:29.629Z,100.00
2022-09-25T00:34:02.006Z,100.00
2022-09-25T00:36:30.294Z,100.00
2022-09-25T00:38:58.288Z,100.00
2022-09-25T00:41:27.935Z,100.00
2022-09-25T00:43:58.302Z,100.00
2022-09-25T00:46:31.608Z,100.00
2022-09-25T00:49:23.111Z,100.00
2022-09-25T00:52:10.505Z,100.00
2022-09-25T00:54:44.525Z,100.00
2022-09-25T00:57:17.539Z,100.00
2022-09-25T00:59:52.280Z,100.00
2022-09-25T01:02:33.070Z,100.00
2022-09-25T01:05:09.743Z,100.00
2022-09-25T01:07:40.575Z,100.00
2022-09-25T01:10:09.271Z,100.00
2022-09-25T01:12:39.990Z,100.00
2022-09-25T01:15:09.293Z,100.00
2022-09-25T01:17:50.654Z,100.00
2022-09-25T01:20:42.805Z,100.00
2022-09-25T01:23:16.189Z,100.00
2022-09-25T01:26:20.615Z,100.00
2022-09-25T01:28:47.988Z,100.00
2022-09-25T01:31:39.408Z,100.00
2022-09-25T01:34:27.337Z,100.00
2022-09-25T01:37:06.735Z,100.00
2022-09-25T01:39:44.564Z,100.00
2022-09-25T01:42:29.341Z,100.00
2022-09-25T01:45:22.679Z,100.00
2022-09-25T01:47:53.127Z,100.00
2022-09-25T01:50:35.315Z,100.00
2022-09-25T01:53:09.240Z,100.00
2022-09-25T01:55:46.103Z,100.00
2022-09-25T01:58:28.106Z,100.00
2022-09-25T02:01:05.213Z,100.00
2022-09-25T02:03:45.976Z,100.00
2022-09-25T02:06:17.503Z,100.00
2022-09-25T02:08:58.349Z,100.00
2022-09-25T02:11:34.090Z,100.00
2022-09-25T02:14:11.948Z,100.00
2022-09-25T02:16:44.441Z,100.00
2022-09-25T02:19:33.882Z,100.00
2022-09-25T02:22:24.766Z,100.00
2022-09-25T02:25:06.813Z,100.00
2022-09-25T02:27:34.221Z,100.00
2022-09-25T02:30:01.766Z,100.00
2022-09-25T02:32:33.198Z,100.00
2022-09-25T02:35:01.094Z,100.00
2022-09-25T02:37:30.607Z,100.00
2022-09-25T02:40:02.044Z,100.00
2022-09-25T02:42:50.863Z,100.00
2022-09-25T02:45:46.181Z,100.00
2022-09-25T02:48:35.537Z,100.00
2022-09-25T02:51:08.720Z,100.00
2022-09-25T02:53:58.137Z,100.00
2022-09-25T02:56:43.047Z,100.00
2022-09-25T02:59:18.684Z,100.00
2022-09-25T03:01:47.985Z,100.00
2022-09-25T03:04:17.841Z,100.00
2022-09-25T03:06:46.233Z,100.00
2022-09-25T03:09:17.484Z,100.00
2022-09-25T03:11:44.958Z,100.00
2022-09-25T03:14:12.607Z,100.00
2022-09-25T03:16:52.805Z,100.00
2022-09-25T03:19:20.247Z,100.00
2022-09-25T03:21:48.679Z,100.00
2022-09-25T03:24:16.557Z,100.00
2022-09-25T03:26:44.547Z,100.00
2022-09-25T03:29:17.221Z,100.00
2022-09-25T03:31:45.567Z,100.00
2022-09-25T03:34:15.154Z,100.00
2022-09-25T03:36:42.905Z,100.00
2022-09-25T03:39:15.308Z,100.00
2022-09-25T03:41:43.939Z,100.00
2022-09-25T03:44:11.978Z,100.00
2022-09-25T03:46:39.701Z,100.00
2022-09-25T03:49:07.830Z,100.00
2022-09-25T03:51:35.386Z,100.00
2022-09-25T03:54:04.211Z,100.00
2022-09-25T03:56:32.707Z,100.00
2022-09-25T03:59:00.430Z,100.00
2022-09-25T04:01:28.807Z,100.00
2022-09-25T04:03:57.513Z,100.00
2022-09-25T04:06:26.507Z,100.00
2022-09-25T04:08:54.887Z,100.00
2022-09-25T04:11:25.141Z,100.00
2022-09-25T04:13:52.798Z,100.00
2022-09-25T04:16:21.146Z,100.00
2022-09-25T04:18:48.794Z,100.00
2022-09-25T04:21:16.886Z,100.00
2022-09-25T04:24:04.439Z,100.00
2022-09-25T04:26:32.369Z,100.00
2022-09-25T04:29:01.366Z,100.00
2022-09-25T04:31:32.864Z,100.00
2022-09-25T04:34:00.946Z,100.00
2022-09-25T04:36:28.297Z,100.00
2022-09-25T04:38:55.654Z,100.00
2022-09-25T04:41:22.998Z,100.00
2022-09-25T04:43:51.444Z,100.00
2022-09-25T04:46:22.312Z,100.00
2022-09-25T04:48:50.099Z,100.00
2022-09-25T04:51:17.467Z,100.00
2022-09-25T04:53:44.899Z,100.00
2022-09-25T04:56:15.907Z,100.00
2022-09-25T04:58:49.326Z,100.00
2022-09-25T05:01:18.777Z,100.00
2022-09-25T05:03:50.211Z,100.00
2022-09-25T05:06:17.959Z,100.00
2022-09-25T05:08:52.303Z,100.00
2022-09-25T05:11:19.747Z,100.00
2022-09-25T05:13:53.039Z,100.00
2022-09-25T05:16:21.031Z,100.00
2022-09-25T05:18:48.683Z,100.00
2022-09-25T05:21:16.057Z,100.00
2022-09-25T05:23:43.493Z,100.00
2022-09-25T05:26:11.061Z,100.00
2022-09-25T05:28:38.719Z,100.00
2022-09-25T05:31:06.916Z,100.00
2022-09-25T05:33:35.189Z,100.00
2022-09-25T05:36:04.621Z,100.00
2022-09-25T05:38:36.972Z,100.00
2022-09-25T05:41:10.017Z,100.00
2022-09-25T05:43:47.560Z,100.00
2022-09-25T05:46:16.348Z,100.00
2022-09-25T05:48:43.805Z,100.00
2022-09-25T05:51:11.600Z,100.00
2022-09-25T05:53:39.031Z,100.00
2022-09-25T05:56:07.104Z,100.00
2022-09-25T05:58:35.254Z,100.00
2022-09-25T06:01:04.628Z,100.00
2022-09-25T06:03:31.980Z,100.00
2022-09-25T06:06:00.303Z,100.00
2022-09-25T06:08:31.054Z,100.00
2022-09-25T06:11:00.686Z,100.00
2022-09-25T06:13:29.198Z,100.00
2022-09-25T06:15:57.172Z,100.00
2022-09-25T06:18:26.076Z,100.00
2022-09-25T06:21:01.594Z,100.00
2022-09-25T06:23:29.375Z,100.00
2022-09-25T06:26:04.429Z,100.00
2022-09-25T06:28:32.018Z,100.00
2022-09-25T06:31:04.131Z,100.00
2022-09-25T06:33:32.067Z,100.00
2022-09-25T06:36:00.712Z,100.00
2022-09-25T06:38:28.538Z,100.00
2022-09-25T06:40:59.781Z,100.00
2022-09-25T06:43:28.514Z,100.00
2022-09-25T06:45:58.943Z,100.00
2022-09-25T06:48:26.486Z,100.00
2022-09-25T06:50:55.782Z,100.00
2022-09-25T06:53:25.545Z,100.00
2022-09-25T06:55:56.400Z,100.00
2022-09-25T06:58:26.744Z,100.00
2022-09-25T07:00:56.559Z,100.00
2022-09-25T07:03:43.295Z,100.00
2022-09-25T07:06:18.419Z,100.00
2022-09-25T07:08:47.941Z,100.00
2022-09-25T07:11:18.008Z,100.00
2022-09-25T07:13:45.852Z,100.00
2022-09-25T07:16:15.961Z,100.00
2022-09-25T07:18:44.337Z,100.00
2022-09-25T07:21:14.419Z,100.00
2022-09-25T07:23:42.318Z,100.00
2022-09-25T07:26:12.437Z,100.00
2022-09-25T07:28:41.585Z,100.00
2022-09-25T07:31:17.891Z,100.00
2022-09-25T07:33:46.147Z,100.00
2022-09-25T07:36:14.874Z,100.00
2022-09-25T07:38:42.524Z,100.00
2022-09-25T07:41:12.967Z,100.00
2022-09-25T07:43:43.640Z,100.00
2022-09-25T07:46:12.470Z,100.00
2022-09-25T07:48:41.254Z,100.00
2022-09-25T07:51:11.592Z,100.00
2022-09-25T07:53:40.642Z,100.00
2022-09-25T07:56:09.100Z,100.00
2022-09-25T07:58:36.552Z,100.00
2022-09-25T08:01:07.206Z,100.00
2022-09-25T08:03:35.773Z,100.00
2022-09-25T08:06:05.814Z,100.00
2022-09-25T08:08:34.673Z,100.00
2022-09-25T08:11:06.681Z,100.00
2022-09-25T08:13:35.507Z,100.00
2022-09-25T08:16:04.066Z,100.00
2022-09-25T08:18:31.677Z,100.00
2022-09-25T08:21:03.870Z,100.00
2022-09-25T08:23:32.009Z,100.00
2022-09-25T08:25:59.770Z,100.00
2022-09-25T08:28:28.055Z,100.00
2022-09-25T08:30:57.832Z,100.00
2022-09-25T08:33:25.412Z,100.00
2022-09-25T08:35:58.006Z,100.00
2022-09-25T08:38:26.499Z,100.00
2022-09-25T08:41:09.516Z,100.00
2022-09-25T08:43:50.316Z,100.00
2022-09-25T08:46:42.280Z,100.00
2022-09-25T08:49:12.151Z,100.00
2022-09-25T08:51:47.044Z,100.00
2022-09-25T08:54:26.347Z,100.00
2022-09-25T08:56:58.231Z,100.00
2022-09-25T08:59:35.799Z,98.38
2022-09-25T09:02:14.366Z,94.71
2022-09-25T09:05:02.615Z,87.39
2022-09-25T09:07:42.619Z,84.65
2022-09-25T09:10:35.186Z,82.51
2022-09-25T09:13:26.833Z,76.81
2022-09-25T09:16:01.174Z,75.08
2022-09-25T09:18:31.066Z,71.69
2022-09-25T09:21:05.933Z,67.46
2022-09-25T09:23:53.440Z,59.30
2022-09-25T09:26:41.371Z,54.20
2022-09-25T09:29:41.839Z,52.33
2022-09-25T09:32:37.134Z,53.03
2022-09-25T09:35:31.215Z,51.70
2022-09-25T09:38:31.393Z,53.80
2022-09-25T09:41:33.729Z,51.97
2022-09-25T09:44:19.305Z,53.08
2022-09-25T09:46:59.089Z,50.61
2022-09-25T09:49:39.624Z,47.51
2022-09-25T09:52:17.478Z,45.31
2022-09-25T09:55:01.226Z,44.13
2022-09-25T09:57:33.085Z,43.32
2022-09-25T10:00:14.618Z,41.89
2022-09-25T10:02:57.795Z,41.46
2022-09-25T10:05:45.057Z,40.19
2022-09-25T10:08:13.098Z,40.00
2022-09-25T10:10:47.901Z,38.91
2022-09-25T10:13:23.842Z,38.72
2022-09-25T10:16:16.988Z,37.52
2022-09-25T10:18:47.198Z,36.77
2022-09-25T10:21:19.020Z,36.12
2022-09-25T10:23:50.919Z,36.32
2022-09-25T10:26:36.798Z,37.91
2022-09-25T10:29:10.544Z,38.43
2022-09-25T10:31:40.621Z,36.70
2022-09-25T10:34:22.483Z,35.20
2022-09-25T10:36:52.384Z,36.52
2022-09-25T10:39:51.221Z,34.94
2022-09-25T10:42:39.502Z,34.95
2022-09-25T10:45:36.116Z,33.63
2022-09-25T10:48:47.368Z,33.05
2022-09-25T10:51:18.392Z,33.47
2022-09-25T10:53:51.433Z,31.99
2022-09-25T10:56:35.897Z,32.46
2022-09-25T10:59:03.972Z,33.01
2022-09-25T11:01:40.649Z,33.71
2022-09-25T11:04:22.535Z,33.25
2022-09-25T11:06:53.019Z,32.00
2022-09-25T11:09:23.367Z,33.65
2022-09-25T11:11:53.930Z,33.24
2022-09-25T11:14:34.100Z,32.99
2022-09-25T11:17:08.249Z,31.10
2022-09-25T11:19:38.473Z,30.52
2022-09-25T11:22:33.240Z,28.13
2022-09-25T11:25:36.401Z,29.48
2022-09-25T11:28:14.803Z,30.47
2022-09-25T11:31:31.702Z,29.31
2022-09-25T11:34:02.281Z,29.24
2022-09-25T11:36:43.458Z,26.45
2022-09-25T11:39:50.878Z,25.32
2022-09-25T11:42:32.937Z,26.53
2022-09-25T11:45:19.283Z,25.50
2022-09-25T11:48:03.596Z,26.15
2022-09-25T11:50:41.307Z,27.27
2022-09-25T11:53:27.790Z,26.94
2022-09-25T11:56:25.696Z,27.26
2022-09-25T11:59:13.493Z,27.81
2022-09-25T12:01:48.599Z,26.78
2022-09-25T12:04:58.005Z,28.36
2022-09-25T12:07:58.113Z,28.98
2022-09-25T12:10:44.139Z,28.77
2022-09-25T12:13:39.667Z,31.37
2022-09-25T12:16:17.050Z,33.66
2022-09-25T12:19:02.891Z,33.55
2022-09-25T12:21:43.630Z,33.25
2022-09-25T12:24:32.815Z,33.65
2022-09-25T12:27:20.958Z,33.71
2022-09-25T12:30:07.811Z,36.49
2022-09-25T12:32:38.151Z,37.91
2022-09-25T12:35:15.494Z,38.44
2022-09-25T12:37:57.131Z,39.70
2022-09-25T12:40:57.146Z,38.71
2022-09-25T12:43:53.374Z,40.31
2022-09-25T12:46:32.308Z,41.89
2022-09-25T12:49:19.761Z,42.41
2022-09-25T12:51:54.236Z,42.69
2022-09-25T12:54:28.685Z,42.02
2022-09-25T12:57:09.648Z,43.65
2022-09-25T12:59:47.894Z,42.86
2022-09-25T13:02:34.100Z,42.63
2022-09-25T13:05:28.163Z,42.72
2022-09-25T13:08:10.405Z,41.93
2022-09-25T13:10:50.283Z,42.21
2022-09-25T13:13:22.401Z,41.11
2022-09-25T13:15:59.088Z,43.95
2022-09-25T13:18:30.170Z,44.27
2022-09-25T13:21:17.594Z,45.65
2022-09-25T13:23:51.223Z,43.10
2022-09-25T13:26:25.107Z,42.97
2022-09-25T13:28:57.550Z,43.07
2022-09-25T13:31:37.091Z,43.58
2022-09-25T13:34:12.330Z,44.37
2022-09-25T13:36:58.372Z,46.17
2022-09-25T13:39:46.257Z,43.96
2022-09-25T13:42:23.478Z,45.36
2022-09-25T13:45:06.199Z,45.21
2022-09-25T13:48:10.081Z,45.74
2022-09-25T13:50:40.329Z,45.83
2022-09-25T13:53:17.424Z,46.65
2022-09-25T13:55:47.985Z,46.33
2022-09-25T13:58:22.628Z,45.50
2022-09-25T14:00:57.410Z,43.38
2022-09-25T14:03:46.495Z,43.18
2022-09-25T14:06:24.797Z,43.12
2022-09-25T14:08:56.018Z,44.09
2022-09-25T14:11:31.451Z,45.96
2022-09-25T14:14:05.188Z,46.63
2022-09-25T14:16:37.122Z,48.79
2022-09-25T14:19:06.264Z,49.17
2022-09-25T14:21:34.922Z,49.98
2022-09-25T14:24:24.768Z,50.47
2022-09-25T14:26:53.222Z,50.80
2022-09-25T14:29:26.034Z,51.62
2022-09-25T14:32:09.075Z,51.25
2022-09-25T14:35:09.822Z,52.52
2022-09-25T14:37:56.567Z,52.81
2022-09-25T14:40:36.436Z,52.86
2022-09-25T14:43:14.308Z,53.19
2022-09-25T14:45:55.797Z,54.67
2022-09-25T14:48:43.201Z,55.17
2022-09-25T14:51:15.269Z,56.14
2022-09-25T14:53:48.671Z,58.24
2022-09-25T14:56:16.238Z,59.77
2022-09-25T14:58:53.661Z,58.69
2022-09-25T15:01:24.644Z,58.65
2022-09-25T15:03:54.576Z,58.20
2022-09-25T15:06:34.956Z,58.18
2022-09-25T15:09:03.269Z,59.15
2022-09-25T15:11:42.615Z,63.87
2022-09-25T15:14:19.805Z,65.31
2022-09-25T15:17:06.538Z,64.96
2022-09-25T15:19:42.036Z,64.00
2022-09-25T15:22:17.959Z,64.96
2022-09-25T15:24:54.254Z,66.78
2022-09-25T15:27:23.163Z,64.94
2022-09-25T15:29:51.488Z,64.43
2022-09-25T15:32:40.121Z,63.62
2022-09-25T15:35:17.423Z,64.48
2022-09-25T15:37:46.414Z,65.93
2022-09-25T15:40:23.043Z,67.37
2022-09-25T15:42:50.875Z,69.34
2022-09-25T15:45:33.634Z,70.14
2022-09-25T15:48:08.956Z,70.95
2022-09-25T15:50:37.688Z,71.43
2022-09-25T15:53:05.161Z,71.23
2022-09-25T15:55:32.882Z,71.21
2022-09-25T15:58:10.792Z,71.77
2022-09-25T16:00:57.603Z,72.66
2022-09-25T16:03:48.273Z,73.01
2022-09-25T16:06:19.184Z,74.76
2022-09-25T16:08:47.909Z,76.67
2022-09-25T16:11:22.930Z,76.55
2022-09-25T16:14:29.300Z,77.04
2022-09-25T16:16:58.565Z,77.87
2022-09-25T16:19:26.042Z,78.97
2022-09-25T16:21:54.566Z,78.13
2022-09-25T16:24:28.867Z,77.59
2022-09-25T16:27:02.161Z,78.54
2022-09-25T16:29:37.334Z,78.05
2022-09-25T16:32:15.094Z,78.74
2022-09-25T16:34:54.453Z,79.80
2022-09-25T16:37:25.292Z,81.75
2022-09-25T16:40:17.885Z,82.91
2022-09-25T16:42:47.487Z,83.52
2022-09-25T16:45:27.645Z,84.40
2022-09-25T16:47:58.449Z,85.05
2022-09-25T16:50:28.474Z,85.31
2022-09-25T16:52:55.957Z,86.04
2022-09-25T16:55:29.330Z,87.77
2022-09-25T16:57:58.834Z,88.58
2022-09-25T17:00:29.772Z,89.63
2022-09-25T17:02:57.567Z,89.85
2022-09-25T17:05:28.314Z,90.40
2022-09-25T17:07:59.995Z,90.58
2022-09-25T17:10:31.651Z,92.58
2022-09-25T17:13:02.433Z,92.64
2022-09-25T17:15:34.605Z,93.23
2022-09-25T17:18:06.579Z,94.04
2022-09-25T17:20:35.261Z,95.68
2022-09-25T17:23:02.701Z,96.53
2022-09-25T17:25:44.877Z,97.92
2022-09-25T17:28:13.195Z,99.84
2022-09-25T17:30:42.117Z,100.00
2022-09-25T17:33:23.417Z,100.00
2022-09-25T17:36:09.673Z,100.00
2022-09-25T17:38:37.122Z,100.00
2022-09-25T17:41:07.532Z,100.00
2022-09-25T17:43:35.333Z,100.00
2022-09-25T17:46:02.841Z,100.00
2022-09-25T17:48:31.924Z,100.00
2022-09-25T17:51:02.020Z,100.00
2022-09-25T17:53:32.586Z,100.00
2022-09-25T17:56:01.364Z,100.00
2022-09-25T17:58:30.751Z,100.00
2022-09-25T18:01:00.466Z,100.00
2022-09-25T18:03:30.305Z,100.00
2022-09-25T18:05:58.711Z,100.00
2022-09-25T18:08:27.238Z,100.00
2022-09-25T18:10:58.585Z,100.00
2022-09-25T18:13:26.163Z,100.00
2022-09-25T18:15:58.005Z,100.00
2022-09-25T18:18:45.992Z,100.00
2022-09-25T18:21:32.228Z,100.00
2022-09-25T18:23:59.795Z,100.00
2022-09-25T18:26:31.174Z,100.00
2022-09-25T18:28:58.974Z,100.00
2022-09-25T18:31:26.550Z,100.00
2022-09-25T18:33:55.113Z,100.00
2022-09-25T18:36:23.073Z,100.00
2022-09-25T18:38:50.533Z,100.00
2022-09-25T18:41:18.029Z,100.00
2022-09-25T18:43:45.487Z,100.00
2022-09-25T18:46:13.281Z,100.00
2022-09-25T18:48:45.498Z,100.00
2022-09-25T18:51:13.051Z,100.00
2022-09-25T18:53:40.522Z,100.00
2022-09-25T18:56:08.284Z,100.00
2022-09-25T18:58:36.130Z,100.00
2022-09-25T19:01:05.970Z,100.00
2022-09-25T19:03:38.423Z,100.00
2022-09-25T19:06:08.779Z,100.00
2022-09-25T19:08:36.303Z,100.00
2022-09-25T19:11:11.411Z,100.00
2022-09-25T19:13:39.274Z,100.00
2022-09-25T19:16:09.159Z,100.00
2022-09-25T19:18:37.056Z,100.00
2022-09-25T19:21:04.642Z,100.00
2022-09-25T19:23:35.442Z,100.00
2022-09-25T19:26:05.096Z,100.00
2022-09-25T19:28:34.409Z,100.00
2022-09-25T19:31:04.598Z,100.00
2022-09-25T19:33:35.480Z,100.00
2022-09-25T19:36:06.402Z,100.00
2022-09-25T19:38:37.572Z,100.00
2022-09-25T19:41:31.333Z,100.00
2022-09-25T19:44:01.923Z,100.00
2022-09-25T19:46:31.848Z,100.00
2022-09-25T19:48:59.579Z,100.00
2022-09-25T19:51:27.114Z,100.00
2022-09-25T19:53:55.051Z,100.00
2022-09-25T19:56:22.642Z,100.00
2022-09-25T19:58:51.071Z,100.00
2022-09-25T20:01:26.199Z,100.00
2022-09-25T20:03:58.172Z,100.00
2022-09-25T20:06:26.877Z,100.00
2022-09-25T20:09:01.460Z,100.00
2022-09-25T20:11:30.328Z,100.00
2022-09-25T20:13:58.515Z,100.00
2022-09-25T20:16:29.267Z,100.00
2022-09-25T20:19:00.201Z,100.00
2022-09-25T20:21:33.264Z,100.00
2022-09-25T20:24:03.201Z,100.00
2022-09-25T20:26:31.432Z,100.00
2022-09-25T20:29:01.603Z,100.00
2022-09-25T20:31:30.884Z,100.00
2022-09-25T20:33:58.711Z,100.00
2022-09-25T20:36:26.376Z,100.00
2022-09-25T20:38:55.784Z,100.00
2022-09-25T20:41:25.046Z,100.00
2022-09-25T20:43:54.877Z,100.00
2022-09-25T20:46:23.961Z,100.00
2022-09-25T20:48:53.126Z,100.00
2022-09-25T20:51:27.517Z,100.00
2022-09-25T20:54:01.105Z,100.00
2022-09-25T20:56:31.083Z,100.00
2022-09-25T20:59:00.396Z,100.00
2022-09-25T21:01:31.314Z,100.00
2022-09-25T21:04:03.863Z,100.00
2022-09-25T21:06:34.005Z,100.00
2022-09-25T21:09:04.937Z,100.00
2022-09-25T21:11:33.453Z,100.00
2022-09-25T21:14:02.839Z,100.00
2022-09-25T21:16:32.183Z,100.00
2022-09-25T21:19:04.036Z,100.00
2022-09-25T21:21:33.238Z,100.00
2022-09-25T21:24:03.899Z,100.00
2022-09-25T21:26:33.233Z,100.00
2022-09-25T21:29:02.578Z,100.00
2022-09-25T21:31:36.631Z,100.00
2022-09-25T21:34:05.675Z,100.00
2022-09-25T21:36:33.582Z,100.00
2022-09-25T21:39:01.689Z,100.00
2022-09-25T21:41:30.631Z,100.00
2022-09-25T21:44:04.145Z,100.00
2022-09-25T21:46:33.097Z,100.00
2022-09-25T21:49:02.912Z,100.00
2022-09-25T21:51:45.468Z,100.00
2022-09-25T21:54:14.514Z,100.00
2022-09-25T21:56:41.908Z,100.00
2022-09-25T21:59:09.756Z,100.00
2022-09-25T22:01:39.317Z,100.00
2022-09-25T22:04:10.469Z,100.00
2022-09-25T22:06:41.143Z,100.00
2022-09-25T22:09:09.778Z,100.00
2022-09-25T22:11:38.009Z,100.00
2022-09-25T22:14:06.218Z,100.00
2022-09-25T22:16:36.555Z,100.00
2022-09-25T22:19:24.350Z,100.00
2022-09-25T22:21:53.070Z,100.00
2022-09-25T22:24:21.740Z,100.00
2022-09-25T22:26:51.545Z,100.00
2022-09-25T22:29:20.711Z,100.00
2022-09-25T22:31:48.261Z,100.00
2022-09-25T22:34:19.530Z,100.00
2022-09-25T22:36:47.717Z,100.00
2022-09-25T22:39:17.325Z,100.00
2022-09-25T22:41:45.560Z,100.00
2022-09-25T22:44:13.014Z,100.00
2022-09-25T22:46:40.415Z,100.00
2022-09-25T22:49:07.889Z,100.00
2022-09-25T22:51:35.329Z,100.00
2022-09-25T22:54:02.838Z,100.00
2022-09-25T22:56:32.375Z,100.00
2022-09-25T22:59:06.466Z,100.00
2022-09-25T23:01:40.373Z,100.00
2022-09-25T23:04:13.777Z,100.00
2022-09-25T23:06:41.936Z,100.00
2022-09-25T23:09:19.590Z,100.00
2022-09-25T23:11:47.466Z,100.00
2022-09-25T23:14:21.011Z,100.00
2022-09-25T23:16:50.700Z,100.00
2022-09-25T23:19:18.944Z,100.00
2022-09-25T23:21:46.741Z,100.00
2022-09-25T23:24:16.988Z,100.00
2022-09-25T23:26:45.790Z,100.00
2022-09-25T23:29:15.566Z,100.00
2022-09-25T23:31:44.139Z,100.00
2022-09-25T23:34:12.265Z,100.00
2022-09-25T23:36:39.986Z,100.00
2022-09-25T23:39:08.815Z,100.00
2022-09-25T23:41:38.823Z,100.00
2022-09-25T23:44:08.823Z,100.00
2022-09-25T23:46:39.784Z,100.00
2022-09-25T23:49:07.678Z,100.00
2022-09-25T23:51:35.653Z,100.00
2022-09-25T23:54:03.719Z,100.00
2022-09-25T23:56:33.018Z,100.00
2022-09-25T23:59:01.591Z,100.00
